Airfield :
LOGIN :

Register | Disclaimer

   EN    FR    IT 

 










Legend :    VFR   Marginal VFR   IFR   Intensive IFR   Very Intensive IFR
Visi :
Ceiling :
>= 8 km
>= 3000ft
5 to 8 km
1000 to 3000 ft
1500m to 5 km
500 to 1000 ft
800 to 1500m
200 to 500 ft
< 800m
< 200 ft
Symbols :   Thunderstorms  Fog  Heavy snow  Heavy precipitations  Wind > 20 kt
SIGMETs :     Misc.  Thunderstorms  Icing  Turbulence  Mountain Waves  Volcanic Ashes







- Airport Elevation : 15 ft
- IATA code : GIB


LXGB - Gibraltar

CURRENT METAR :
  • 261150Z 21008KT 9999 FEW030 25/18 Q1013 NOSIG

EXPIRED METARs :
  • 261050Z 22007KT 9999 FEW030 25/18 Q1014 NOSIG
  • 260950Z 22008KT 9999 FEW027 24/18 Q1014 NOSIG

TAF TAF LXGB
Valid from the 26 at 12:00 until the 26 at 21:00 UTC


261033Z 2612/2621 26007KT 9999 FEW027
TEMPO 2612/2621 20015KT 520001
No reported NOTAMs for that airfield.
2 SIGMETs reported for the Madrid FIR (LECM) :
 
Embedded thunderstorms
LECM SIGMET 12 VALID 261149/261400 LEVA
LECM MADRID FIR/UIR EMBD TS OBS AT 1149Z W OF LINE N4140 W00520 - N41 W00520 TOP FL420 STNR NC=
Embedded thunderstorms
LECM SIGMET 11 VALID 261100/261300 LEVA
LECM MADRID FIR/UIR EMBD TS OBS AT 1052Z WI N4150 W00930 - N4140 W00450 - N4320 W00440 - N4330 W010 TOP FL420 STNR NC=



MET'MAP, your aeronautical weather chart ! - Copyright ORBIFLY December 2007 - Disclaimer

ORBIFLY MET'MAP TEAM :

Programming & Development : Alexandra Zaïnal
Concept & Development : Baudouin d'Aumeries
Co-Development & Prog : Marc-Olivier Méhu
Technical & hardware support : Manuel Goepfert

Contact : metmap@orbifly.com




SOURCES & CREDITS :

   NOAA